sensor_id;sensor_type;location;lat;lon;timestamp;P1;durP1;ratioP1;P2;durP2;ratioP2
59434;SDS011;45241;49.768;8.636;2023-03-01T00:01:24;15.48;;;9.10;;
59434;SDS011;45241;49.768;8.636;2023-03-01T00:03:51;14.88;;;9.65;;
59434;SDS011;45241;49.768;8.636;2023-03-01T00:06:17;17.90;;;10.23;;
59434;SDS011;45241;49.768;8.636;2023-03-01T00:08:44;17.52;;;10.07;;
59434;SDS011;45241;49.768;8.636;2023-03-01T00:11:14;18.40;;;10.30;;
59434;SDS011;45241;49.768;8.636;2023-03-01T00:13:41;16.23;;;9.88;;
59434;SDS011;45241;49.768;8.636;2023-03-01T00:16:12;16.80;;;10.23;;
59434;SDS011;45241;49.768;8.636;2023-03-01T00:18:40;15.65;;;9.88;;
59434;SDS011;45241;49.768;8.636;2023-03-01T00:21:06;15.85;;;10.02;;
59434;SDS011;45241;49.768;8.636;2023-03-01T00:23:31;15.00;;;9.50;;
59434;SDS011;45241;49.768;8.636;2023-03-01T00:25:58;17.35;;;10.27;;
59434;SDS011;45241;49.768;8.636;2023-03-01T00:28:24;14.98;;;9.98;;
59434;SDS011;45241;49.768;8.636;2023-03-01T00:30:49;16.75;;;10.45;;
59434;SDS011;45241;49.768;8.636;2023-03-01T00:33:15;16.67;;;9.82;;
59434;SDS011;45241;49.768;8.636;2023-03-01T00:35:40;17.52;;;10.52;;
59434;SDS011;45241;49.768;8.636;2023-03-01T00:38:05;15.38;;;9.85;;
59434;SDS011;45241;49.768;8.636;2023-03-01T00:40:32;15.50;;;10.15;;
59434;SDS011;45241;49.768;8.636;2023-03-01T00:42:59;15.88;;;9.95;;
59434;SDS011;45241;49.768;8.636;2023-03-01T00:45:25;15.00;;;9.32;;
59434;SDS011;45241;49.768;8.636;2023-03-01T00:47:50;16.02;;;10.27;;
59434;SDS011;45241;49.768;8.636;2023-03-01T00:50:16;15.43;;;10.18;;
59434;SDS011;45241;49.768;8.636;2023-03-01T00:52:43;15.43;;;9.45;;
59434;SDS011;45241;49.768;8.636;2023-03-01T00:55:08;17.77;;;10.18;;
59434;SDS011;45241;49.768;8.636;2023-03-01T00:57:34;16.95;;;10.35;;
59434;SDS011;45241;49.768;8.636;2023-03-01T00:59:59;18.58;;;10.50;;
59434;SDS011;45241;49.768;8.636;2023-03-01T01:02:25;15.88;;;10.07;;
59434;SDS011;45241;49.768;8.636;2023-03-01T01:04:50;16.77;;;10.13;;
59434;SDS011;45241;49.768;8.636;2023-03-01T01:07:16;19.17;;;10.88;;
59434;SDS011;45241;49.768;8.636;2023-03-01T01:09:41;17.23;;;10.93;;
59434;SDS011;45241;49.768;8.636;2023-03-01T01:12:07;18.25;;;10.48;;
59434;SDS011;45241;49.768;8.636;2023-03-01T01:14:33;17.05;;;10.38;;
59434;SDS011;45241;49.768;8.636;2023-03-01T01:16:59;17.83;;;10.68;;
59434;SDS011;45241;49.768;8.636;2023-03-01T01:19:25;20.85;;;11.02;;
59434;SDS011;45241;49.768;8.636;2023-03-01T01:21:50;16.98;;;10.80;;
59434;SDS011;45241;49.768;8.636;2023-03-01T01:24:16;18.42;;;10.75;;
59434;SDS011;45241;49.768;8.636;2023-03-01T01:26:43;17.38;;;10.93;;
59434;SDS011;45241;49.768;8.636;2023-03-01T01:29:08;18.75;;;10.90;;
59434;SDS011;45241;49.768;8.636;2023-03-01T01:31:35;19.48;;;11.30;;
59434;SDS011;45241;49.768;8.636;2023-03-01T01:34:03;18.17;;;11.27;;
59434;SDS011;45241;49.768;8.636;2023-03-01T01:36:29;20.45;;;11.30;;
59434;SDS011;45241;49.768;8.636;2023-03-01T01:38:55;15.73;;;9.70;;
59434;SDS011;45241;49.768;8.636;2023-03-01T01:41:21;17.15;;;10.00;;
59434;SDS011;45241;49.768;8.636;2023-03-01T01:43:48;16.70;;;10.52;;
59434;SDS011;45241;49.768;8.636;2023-03-01T01:46:35;17.88;;;10.63;;
59434;SDS011;45241;49.768;8.636;2023-03-01T01:49:05;19.65;;;11.25;;
59434;SDS011;45241;49.768;8.636;2023-03-01T01:51:39;16.52;;;10.32;;
59434;SDS011;45241;49.768;8.636;2023-03-01T01:54:12;19.27;;;11.07;;
59434;SDS011;45241;49.768;8.636;2023-03-01T01:56:43;17.10;;;10.43;;
59434;SDS011;45241;49.768;8.636;2023-03-01T01:59:12;16.40;;;10.90;;
59434;SDS011;45241;49.768;8.636;2023-03-01T02:01:38;17.98;;;11.10;;
59434;SDS011;45241;49.768;8.636;2023-03-01T02:04:04;20.65;;;11.38;;
59434;SDS011;45241;49.768;8.636;2023-03-01T02:06:32;16.83;;;10.70;;
59434;SDS011;45241;49.768;8.636;2023-03-01T02:09:02;16.08;;;10.88;;
59434;SDS011;45241;49.768;8.636;2023-03-01T02:11:31;19.48;;;11.38;;
59434;SDS011;45241;49.768;8.636;2023-03-01T02:13:57;16.23;;;10.95;;
59434;SDS011;45241;49.768;8.636;2023-03-01T02:16:23;19.58;;;11.02;;
59434;SDS011;45241;49.768;8.636;2023-03-01T02:18:50;18.00;;;11.30;;
59434;SDS011;45241;49.768;8.636;2023-03-01T02:23:51;15.82;;;10.55;;
59434;SDS011;45241;49.768;8.636;2023-03-01T02:26:59;18.75;;;10.60;;
59434;SDS011;45241;49.768;8.636;2023-03-01T02:29:09;17.27;;;10.88;;
59434;SDS011;45241;49.768;8.636;2023-03-01T02:31:35;17.15;;;10.85;;
59434;SDS011;45241;49.768;8.636;2023-03-01T02:34:07;19.67;;;11.25;;
59434;SDS011;45241;49.768;8.636;2023-03-01T02:36:35;19.52;;;11.55;;
59434;SDS011;45241;49.768;8.636;2023-03-01T02:39:03;20.92;;;12.10;;
59434;SDS011;45241;49.768;8.636;2023-03-01T02:41:39;17.83;;;10.82;;
59434;SDS011;45241;49.768;8.636;2023-03-01T02:44:05;19.42;;;11.75;;
59434;SDS011;45241;49.768;8.636;2023-03-01T02:46:31;21.27;;;11.63;;
59434;SDS011;45241;49.768;8.636;2023-03-01T02:48:57;17.20;;;10.95;;
59434;SDS011;45241;49.768;8.636;2023-03-01T02:56:44;17.83;;;11.15;;
59434;SDS011;45241;49.768;8.636;2023-03-01T02:59:14;20.20;;;11.47;;
59434;SDS011;45241;49.768;8.636;2023-03-01T03:01:43;19.88;;;11.80;;
59434;SDS011;45241;49.768;8.636;2023-03-01T03:04:10;18.20;;;11.15;;
59434;SDS011;45241;49.768;8.636;2023-03-01T03:06:42;19.20;;;11.52;;
59434;SDS011;45241;49.768;8.636;2023-03-01T03:09:11;20.70;;;11.65;;
59434;SDS011;45241;49.768;8.636;2023-03-01T03:11:38;19.05;;;11.55;;
59434;SDS011;45241;49.768;8.636;2023-03-01T03:14:05;19.00;;;11.57;;
59434;SDS011;45241;49.768;8.636;2023-03-01T03:16:41;17.83;;;11.18;;
59434;SDS011;45241;49.768;8.636;2023-03-01T03:19:08;18.25;;;10.75;;
59434;SDS011;45241;49.768;8.636;2023-03-01T03:21:33;17.17;;;10.73;;
59434;SDS011;45241;49.768;8.636;2023-03-01T03:23:59;18.88;;;11.35;;
59434;SDS011;45241;49.768;8.636;2023-03-01T03:26:24;20.75;;;11.57;;
59434;SDS011;45241;49.768;8.636;2023-03-01T03:28:50;19.25;;;11.77;;
59434;SDS011;45241;49.768;8.636;2023-03-01T03:31:16;20.70;;;12.05;;
59434;SDS011;45241;49.768;8.636;2023-03-01T03:33:41;18.88;;;12.00;;
59434;SDS011;45241;49.768;8.636;2023-03-01T03:36:06;21.40;;;12.05;;
59434;SDS011;45241;49.768;8.636;2023-03-01T03:38:38;21.80;;;12.45;;
59434;SDS011;45241;49.768;8.636;2023-03-01T03:41:06;18.80;;;11.85;;
59434;SDS011;45241;49.768;8.636;2023-03-01T03:43:33;18.52;;;11.20;;
59434;SDS011;45241;49.768;8.636;2023-03-01T03:45:59;20.23;;;11.35;;
59434;SDS011;45241;49.768;8.636;2023-03-01T03:48:26;20.42;;;11.52;;
59434;SDS011;45241;49.768;8.636;2023-03-01T03:50:53;19.48;;;12.25;;
59434;SDS011;45241;49.768;8.636;2023-03-01T03:53:19;20.23;;;11.60;;
59434;SDS011;45241;49.768;8.636;2023-03-01T03:55:46;20.00;;;11.68;;
59434;SDS011;45241;49.768;8.636;2023-03-01T03:58:14;19.38;;;11.20;;
59434;SDS011;45241;49.768;8.636;2023-03-01T04:00:41;17.58;;;10.88;;
59434;SDS011;45241;49.768;8.636;2023-03-01T04:03:08;19.67;;;11.55;;
59434;SDS011;45241;49.768;8.636;2023-03-01T04:05:35;19.83;;;12.02;;
59434;SDS011;45241;49.768;8.636;2023-03-01T04:08:01;19.48;;;11.43;;
59434;SDS011;45241;49.768;8.636;2023-03-01T04:10:28;20.35;;;11.57;;
59434;SDS011;45241;49.768;8.636;2023-03-01T04:12:54;18.08;;;10.95;;
59434;SDS011;45241;49.768;8.636;2023-03-01T04:15:23;19.63;;;11.77;;
59434;SDS011;45241;49.768;8.636;2023-03-01T04:17:50;18.83;;;11.30;;
59434;SDS011;45241;49.768;8.636;2023-03-01T04:20:24;20.92;;;12.23;;
59434;SDS011;45241;49.768;8.636;2023-03-01T04:23:01;19.25;;;11.98;;
59434;SDS011;45241;49.768;8.636;2023-03-01T04:28:06;21.40;;;11.65;;
59434;SDS011;45241;49.768;8.636;2023-03-01T04:30:33;19.98;;;12.35;;
59434;SDS011;45241;49.768;8.636;2023-03-01T04:33:01;20.65;;;12.02;;
59434;SDS011;45241;49.768;8.636;2023-03-01T04:35:30;19.92;;;12.52;;
59434;SDS011;45241;49.768;8.636;2023-03-01T04:37:56;24.75;;;12.75;;
59434;SDS011;45241;49.768;8.636;2023-03-01T04:40:22;19.25;;;11.55;;
59434;SDS011;45241;49.768;8.636;2023-03-01T04:42:47;21.65;;;12.13;;
59434;SDS011;45241;49.768;8.636;2023-03-01T04:45:12;19.92;;;12.25;;
59434;SDS011;45241;49.768;8.636;2023-03-01T04:47:41;20.50;;;11.52;;
59434;SDS011;45241;49.768;8.636;2023-03-01T04:50:09;20.75;;;11.63;;
59434;SDS011;45241;49.768;8.636;2023-03-01T04:52:35;19.50;;;11.43;;
59434;SDS011;45241;49.768;8.636;2023-03-01T04:55:01;19.55;;;11.40;;
59434;SDS011;45241;49.768;8.636;2023-03-01T04:57:28;19.55;;;11.60;;
59434;SDS011;45241;49.768;8.636;2023-03-01T04:59:53;20.08;;;12.57;;
59434;SDS011;45241;49.768;8.636;2023-03-01T05:02:19;18.92;;;11.15;;
59434;SDS011;45241;49.768;8.636;2023-03-01T05:04:44;20.92;;;11.10;;
59434;SDS011;45241;49.768;8.636;2023-03-01T05:07:09;20.83;;;11.68;;
59434;SDS011;45241;49.768;8.636;2023-03-01T05:09:35;18.63;;;11.95;;
59434;SDS011;45241;49.768;8.636;2023-03-01T05:12:00;19.80;;;12.23;;
59434;SDS011;45241;49.768;8.636;2023-03-01T05:14:25;19.02;;;11.65;;
59434;SDS011;45241;49.768;8.636;2023-03-01T05:16:51;21.25;;;11.55;;
59434;SDS011;45241;49.768;8.636;2023-03-01T05:19:16;19.55;;;11.70;;
59434;SDS011;45241;49.768;8.636;2023-03-01T05:21:42;23.02;;;12.93;;
59434;SDS011;45241;49.768;8.636;2023-03-01T05:24:26;22.40;;;13.13;;
59434;SDS011;45241;49.768;8.636;2023-03-01T05:26:52;21.98;;;12.77;;
59434;SDS011;45241;49.768;8.636;2023-03-01T05:29:19;19.23;;;11.55;;
59434;SDS011;45241;49.768;8.636;2023-03-01T05:31:50;18.20;;;11.10;;
59434;SDS011;45241;49.768;8.636;2023-03-01T05:34:18;20.95;;;11.95;;
59434;SDS011;45241;49.768;8.636;2023-03-01T05:36:44;19.83;;;11.77;;
59434;SDS011;45241;49.768;8.636;2023-03-01T05:39:09;19.42;;;11.98;;
59434;SDS011;45241;49.768;8.636;2023-03-01T05:41:34;20.45;;;12.38;;
59434;SDS011;45241;49.768;8.636;2023-03-01T05:44:00;21.60;;;12.90;;
59434;SDS011;45241;49.768;8.636;2023-03-01T05:46:25;21.05;;;11.77;;
59434;SDS011;45241;49.768;8.636;2023-03-01T05:48:50;25.00;;;13.13;;
59434;SDS011;45241;49.768;8.636;2023-03-01T05:51:15;24.30;;;13.55;;
59434;SDS011;45241;49.768;8.636;2023-03-01T05:53:42;21.38;;;12.65;;
59434;SDS011;45241;49.768;8.636;2023-03-01T05:56:07;23.40;;;13.73;;
59434;SDS011;45241;49.768;8.636;2023-03-01T05:58:33;21.83;;;12.40;;
59434;SDS011;45241;49.768;8.636;2023-03-01T06:00:58;21.52;;;12.88;;
59434;SDS011;45241;49.768;8.636;2023-03-01T06:03:23;21.70;;;12.35;;
59434;SDS011;45241;49.768;8.636;2023-03-01T06:05:48;18.98;;;11.80;;
59434;SDS011;45241;49.768;8.636;2023-03-01T06:08:14;19.75;;;11.75;;
59434;SDS011;45241;49.768;8.636;2023-03-01T06:10:39;19.92;;;12.82;;
59434;SDS011;45241;49.768;8.636;2023-03-01T06:13:05;24.10;;;13.93;;
59434;SDS011;45241;49.768;8.636;2023-03-01T06:15:31;21.90;;;13.10;;
59434;SDS011;45241;49.768;8.636;2023-03-01T06:17:56;28.50;;;14.73;;
59434;SDS011;45241;49.768;8.636;2023-03-01T06:20:25;25.58;;;13.77;;
59434;SDS011;45241;49.768;8.636;2023-03-01T06:22:51;23.10;;;12.43;;
59434;SDS011;45241;49.768;8.636;2023-03-01T06:25:18;21.27;;;12.57;;
59434;SDS011;45241;49.768;8.636;2023-03-01T06:30:14;22.63;;;13.10;;
59434;SDS011;45241;49.768;8.636;2023-03-01T06:32:40;22.83;;;13.82;;
59434;SDS011;45241;49.768;8.636;2023-03-01T06:35:09;21.23;;;12.38;;
59434;SDS011;45241;49.768;8.636;2023-03-01T06:37:36;23.95;;;13.32;;
59434;SDS011;45241;49.768;8.636;2023-03-01T06:40:02;20.08;;;12.45;;
59434;SDS011;45241;49.768;8.636;2023-03-01T06:42:36;23.13;;;12.70;;
59434;SDS011;45241;49.768;8.636;2023-03-01T06:45:02;21.98;;;12.65;;
59434;SDS011;45241;49.768;8.636;2023-03-01T06:47:29;23.08;;;13.02;;
59434;SDS011;45241;49.768;8.636;2023-03-01T06:49:54;24.08;;;13.05;;
59434;SDS011;45241;49.768;8.636;2023-03-01T06:52:19;23.05;;;12.68;;
59434;SDS011;45241;49.768;8.636;2023-03-01T06:54:45;22.23;;;12.20;;
59434;SDS011;45241;49.768;8.636;2023-03-01T06:57:10;21.52;;;12.65;;
59434;SDS011;45241;49.768;8.636;2023-03-01T06:59:35;19.92;;;12.63;;
59434;SDS011;45241;49.768;8.636;2023-03-01T07:02:03;19.05;;;11.68;;
59434;SDS011;45241;49.768;8.636;2023-03-01T07:04:28;24.45;;;13.02;;
59434;SDS011;45241;49.768;8.636;2023-03-01T07:06:55;23.67;;;13.15;;
59434;SDS011;45241;49.768;8.636;2023-03-01T07:09:23;21.55;;;12.40;;
59434;SDS011;45241;49.768;8.636;2023-03-01T07:11:49;21.35;;;12.38;;
59434;SDS011;45241;49.768;8.636;2023-03-01T07:14:15;20.75;;;12.05;;
59434;SDS011;45241;49.768;8.636;2023-03-01T07:16:41;21.42;;;13.27;;
59434;SDS011;45241;49.768;8.636;2023-03-01T07:19:06;21.23;;;12.50;;
59434;SDS011;45241;49.768;8.636;2023-03-01T07:21:31;24.27;;;12.60;;
59434;SDS011;45241;49.768;8.636;2023-03-01T07:23:57;23.17;;;13.27;;
59434;SDS011;45241;49.768;8.636;2023-03-01T07:26:22;22.30;;;12.68;;
59434;SDS011;45241;49.768;8.636;2023-03-01T07:28:47;22.77;;;12.95;;
59434;SDS011;45241;49.768;8.636;2023-03-01T07:31:13;24.17;;;13.55;;
59434;SDS011;45241;49.768;8.636;2023-03-01T07:33:38;24.25;;;12.57;;
59434;SDS011;45241;49.768;8.636;2023-03-01T07:36:04;23.38;;;14.05;;
59434;SDS011;45241;49.768;8.636;2023-03-01T07:38:30;23.02;;;13.50;;
59434;SDS011;45241;49.768;8.636;2023-03-01T07:40:59;24.33;;;13.98;;
59434;SDS011;45241;49.768;8.636;2023-03-01T07:43:25;22.42;;;12.85;;
59434;SDS011;45241;49.768;8.636;2023-03-01T07:45:52;23.38;;;13.32;;
59434;SDS011;45241;49.768;8.636;2023-03-01T07:48:17;22.70;;;13.45;;
59434;SDS011;45241;49.768;8.636;2023-03-01T07:50:42;23.95;;;14.02;;
59434;SDS011;45241;49.768;8.636;2023-03-01T07:53:09;21.88;;;13.55;;
59434;SDS011;45241;49.768;8.636;2023-03-01T07:55:35;23.33;;;13.73;;
59434;SDS011;45241;49.768;8.636;2023-03-01T07:58:00;24.92;;;13.75;;
59434;SDS011;45241;49.768;8.636;2023-03-01T08:00:26;21.98;;;13.02;;
59434;SDS011;45241;49.768;8.636;2023-03-01T08:02:51;26.60;;;14.32;;
59434;SDS011;45241;49.768;8.636;2023-03-01T08:05:16;22.83;;;13.48;;
59434;SDS011;45241;49.768;8.636;2023-03-01T08:07:41;24.20;;;13.43;;
59434;SDS011;45241;49.768;8.636;2023-03-01T08:10:07;20.50;;;12.52;;
59434;SDS011;45241;49.768;8.636;2023-03-01T08:12:33;23.60;;;14.07;;
59434;SDS011;45241;49.768;8.636;2023-03-01T08:14:58;22.05;;;12.85;;
59434;SDS011;45241;49.768;8.636;2023-03-01T08:17:24;23.40;;;13.23;;
59434;SDS011;45241;49.768;8.636;2023-03-01T08:19:49;24.27;;;12.77;;
59434;SDS011;45241;49.768;8.636;2023-03-01T08:22:15;21.40;;;12.45;;
59434;SDS011;45241;49.768;8.636;2023-03-01T08:24:40;21.95;;;12.95;;
59434;SDS011;45241;49.768;8.636;2023-03-01T08:27:05;21.17;;;12.98;;
59434;SDS011;45241;49.768;8.636;2023-03-01T08:29:31;24.13;;;13.25;;
59434;SDS011;45241;49.768;8.636;2023-03-01T08:31:57;21.30;;;11.90;;
59434;SDS011;45241;49.768;8.636;2023-03-01T08:34:22;21.25;;;13.25;;
59434;SDS011;45241;49.768;8.636;2023-03-01T08:36:48;23.10;;;13.75;;
59434;SDS011;45241;49.768;8.636;2023-03-01T08:39:16;24.13;;;13.80;;
59434;SDS011;45241;49.768;8.636;2023-03-01T08:41:43;23.73;;;14.07;;
59434;SDS011;45241;49.768;8.636;2023-03-01T08:44:09;20.67;;;13.02;;
59434;SDS011;45241;49.768;8.636;2023-03-01T08:46:39;24.15;;;14.23;;
59434;SDS011;45241;49.768;8.636;2023-03-01T08:49:11;25.38;;;13.73;;
59434;SDS011;45241;49.768;8.636;2023-03-01T08:51:42;23.27;;;12.98;;
59434;SDS011;45241;49.768;8.636;2023-03-01T08:54:16;22.98;;;13.90;;
59434;SDS011;45241;49.768;8.636;2023-03-01T08:56:43;22.80;;;13.32;;
59434;SDS011;45241;49.768;8.636;2023-03-01T08:59:09;22.90;;;13.63;;
59434;SDS011;45241;49.768;8.636;2023-03-01T09:01:35;23.58;;;13.75;;
59434;SDS011;45241;49.768;8.636;2023-03-01T09:04:02;20.55;;;12.30;;
59434;SDS011;45241;49.768;8.636;2023-03-01T09:06:29;25.40;;;13.75;;
59434;SDS011;45241;49.768;8.636;2023-03-01T09:08:55;25.15;;;13.77;;
59434;SDS011;45241;49.768;8.636;2023-03-01T09:11:21;24.08;;;13.50;;
59434;SDS011;45241;49.768;8.636;2023-03-01T09:13:47;21.58;;;13.45;;
59434;SDS011;45241;49.768;8.636;2023-03-01T09:16:14;22.30;;;12.10;;
59434;SDS011;45241;49.768;8.636;2023-03-01T09:18:42;23.23;;;13.60;;
59434;SDS011;45241;49.768;8.636;2023-03-01T09:21:10;22.55;;;14.10;;
59434;SDS011;45241;49.768;8.636;2023-03-01T09:23:38;21.88;;;13.43;;
59434;SDS011;45241;49.768;8.636;2023-03-01T09:26:08;24.48;;;13.85;;
59434;SDS011;45241;49.768;8.636;2023-03-01T09:28:36;24.15;;;14.65;;
59434;SDS011;45241;49.768;8.636;2023-03-01T09:31:02;22.98;;;13.75;;
59434;SDS011;45241;49.768;8.636;2023-03-01T09:33:28;24.85;;;14.45;;
59434;SDS011;45241;49.768;8.636;2023-03-01T09:36:03;25.08;;;13.80;;
59434;SDS011;45241;49.768;8.636;2023-03-01T09:38:30;26.65;;;15.75;;
59434;SDS011;45241;49.768;8.636;2023-03-01T09:40:55;23.45;;;14.10;;
59434;SDS011;45241;49.768;8.636;2023-03-01T09:43:23;23.23;;;13.52;;
59434;SDS011;45241;49.768;8.636;2023-03-01T09:46:23;21.08;;;13.23;;
59434;SDS011;45241;49.768;8.636;2023-03-01T09:48:50;26.40;;;14.40;;
59434;SDS011;45241;49.768;8.636;2023-03-01T09:51:29;22.50;;;14.68;;
59434;SDS011;45241;49.768;8.636;2023-03-01T09:53:58;23.15;;;14.68;;
59434;SDS011;45241;49.768;8.636;2023-03-01T09:56:32;25.80;;;14.38;;
59434;SDS011;45241;49.768;8.636;2023-03-01T10:01:59;23.48;;;14.95;;
59434;SDS011;45241;49.768;8.636;2023-03-01T10:04:44;24.35;;;15.15;;
59434;SDS011;45241;49.768;8.636;2023-03-01T10:09:53;24.38;;;14.88;;
59434;SDS011;45241;49.768;8.636;2023-03-01T10:12:20;21.52;;;14.30;;
59434;SDS011;45241;49.768;8.636;2023-03-01T10:14:57;23.02;;;13.45;;
59434;SDS011;45241;49.768;8.636;2023-03-01T10:20:16;22.35;;;14.45;;
59434;SDS011;45241;49.768;8.636;2023-03-01T10:22:46;22.65;;;14.32;;
59434;SDS011;45241;49.768;8.636;2023-03-01T10:25:15;23.77;;;14.30;;
59434;SDS011;45241;49.768;8.636;2023-03-01T10:27:52;22.63;;;13.05;;
59434;SDS011;45241;49.768;8.636;2023-03-01T10:30:21;25.33;;;13.82;;
59434;SDS011;45241;49.768;8.636;2023-03-01T10:33:01;27.58;;;15.55;;
59434;SDS011;45241;49.768;8.636;2023-03-01T10:35:28;25.35;;;15.07;;
59434;SDS011;45241;49.768;8.636;2023-03-01T10:38:07;24.45;;;13.13;;
59434;SDS011;45241;49.768;8.636;2023-03-01T10:40:35;23.83;;;12.93;;
59434;SDS011;45241;49.768;8.636;2023-03-01T10:43:04;25.00;;;14.10;;
59434;SDS011;45241;49.768;8.636;2023-03-01T10:51:12;21.10;;;11.95;;
59434;SDS011;45241;49.768;8.636;2023-03-01T10:53:42;23.13;;;12.60;;
59434;SDS011;45241;49.768;8.636;2023-03-01T10:56:13;22.00;;;11.27;;
59434;SDS011;45241;49.768;8.636;2023-03-01T10:58:41;23.25;;;12.90;;
59434;SDS011;45241;49.768;8.636;2023-03-01T11:04:03;22.70;;;12.32;;
59434;SDS011;45241;49.768;8.636;2023-03-01T11:06:36;23.52;;;13.77;;
59434;SDS011;45241;49.768;8.636;2023-03-01T11:09:19;22.30;;;13.43;;
59434;SDS011;45241;49.768;8.636;2023-03-01T11:11:53;24.10;;;14.30;;
59434;SDS011;45241;49.768;8.636;2023-03-01T11:14:21;23.52;;;12.73;;
59434;SDS011;45241;49.768;8.636;2023-03-01T11:16:49;20.38;;;11.13;;
59434;SDS011;45241;49.768;8.636;2023-03-01T11:19:24;20.77;;;12.15;;
59434;SDS011;45241;49.768;8.636;2023-03-01T11:22:04;19.90;;;11.00;;
59434;SDS011;45241;49.768;8.636;2023-03-01T11:27:21;19.42;;;10.82;;
59434;SDS011;45241;49.768;8.636;2023-03-01T11:30:51;22.02;;;12.38;;
59434;SDS011;45241;49.768;8.636;2023-03-01T11:38:43;20.20;;;11.77;;
59434;SDS011;45241;49.768;8.636;2023-03-01T11:41:16;19.60;;;10.40;;
59434;SDS011;45241;49.768;8.636;2023-03-01T12:05:50;21.33;;;11.57;;
59434;SDS011;45241;49.768;8.636;2023-03-01T12:08:40;18.40;;;10.95;;
59434;SDS011;45241;49.768;8.636;2023-03-01T12:17:07;19.13;;;12.38;;
59434;SDS011;45241;49.768;8.636;2023-03-01T12:25:27;19.90;;;12.15;;
59434;SDS011;45241;49.768;8.636;2023-03-01T12:33:43;17.17;;;9.93;;
59434;SDS011;45241;49.768;8.636;2023-03-01T12:45:09;18.30;;;10.13;;
59434;SDS011;45241;49.768;8.636;2023-03-01T12:50:43;17.17;;;9.55;;
59434;SDS011;45241;49.768;8.636;2023-03-01T12:53:22;15.23;;;9.77;;
59434;SDS011;45241;49.768;8.636;2023-03-01T12:55:51;13.95;;;8.80;;
59434;SDS011;45241;49.768;8.636;2023-03-01T13:03:48;15.20;;;9.48;;
59434;SDS011;45241;49.768;8.636;2023-03-01T13:06:31;13.02;;;8.73;;
59434;SDS011;45241;49.768;8.636;2023-03-01T13:09:05;15.60;;;8.95;;
59434;SDS011;45241;49.768;8.636;2023-03-01T13:11:42;14.00;;;9.50;;
59434;SDS011;45241;49.768;8.636;2023-03-01T13:16:45;15.20;;;9.38;;
59434;SDS011;45241;49.768;8.636;2023-03-01T13:21:42;12.68;;;8.25;;
59434;SDS011;45241;49.768;8.636;2023-03-01T13:32:24;14.30;;;8.40;;
59434;SDS011;45241;49.768;8.636;2023-03-01T13:35:42;13.13;;;8.43;;
59434;SDS011;45241;49.768;8.636;2023-03-01T13:37:43;13.40;;;8.25;;
59434;SDS011;45241;49.768;8.636;2023-03-01T13:42:44;12.88;;;8.80;;
59434;SDS011;45241;49.768;8.636;2023-03-01T13:45:19;12.63;;;7.97;;
59434;SDS011;45241;49.768;8.636;2023-03-01T13:48:14;14.73;;;8.00;;
59434;SDS011;45241;49.768;8.636;2023-03-01T13:50:47;11.82;;;7.22;;
59434;SDS011;45241;49.768;8.636;2023-03-01T13:53:19;12.40;;;7.57;;
59434;SDS011;45241;49.768;8.636;2023-03-01T13:55:48;12.53;;;8.90;;
59434;SDS011;45241;49.768;8.636;2023-03-01T13:58:26;12.63;;;8.18;;
59434;SDS011;45241;49.768;8.636;2023-03-01T14:00:55;14.52;;;7.75;;
59434;SDS011;45241;49.768;8.636;2023-03-01T14:03:33;14.10;;;8.27;;
59434;SDS011;45241;49.768;8.636;2023-03-01T14:08:33;12.65;;;8.20;;
59434;SDS011;45241;49.768;8.636;2023-03-01T14:14:25;12.27;;;7.15;;
59434;SDS011;45241;49.768;8.636;2023-03-01T14:20:16;10.77;;;6.95;;
59434;SDS011;45241;49.768;8.636;2023-03-01T14:22:53;11.35;;;7.30;;
59434;SDS011;45241;49.768;8.636;2023-03-01T14:25:26;10.68;;;7.43;;
59434;SDS011;45241;49.768;8.636;2023-03-01T14:28:00;15.55;;;7.40;;
59434;SDS011;45241;49.768;8.636;2023-03-01T14:30:36;12.48;;;7.88;;
59434;SDS011;45241;49.768;8.636;2023-03-01T14:33:06;11.40;;;7.20;;
59434;SDS011;45241;49.768;8.636;2023-03-01T14:35:51;11.55;;;7.43;;
59434;SDS011;45241;49.768;8.636;2023-03-01T14:38:22;11.80;;;7.20;;
59434;SDS011;45241;49.768;8.636;2023-03-01T14:40:54;11.40;;;7.07;;
59434;SDS011;45241;49.768;8.636;2023-03-01T14:45:50;11.00;;;6.68;;
59434;SDS011;45241;49.768;8.636;2023-03-01T14:48:16;9.93;;;6.28;;
59434;SDS011;45241;49.768;8.636;2023-03-01T14:50:43;12.55;;;6.70;;
59434;SDS011;45241;49.768;8.636;2023-03-01T14:53:17;12.23;;;6.22;;
59434;SDS011;45241;49.768;8.636;2023-03-01T14:55:46;10.57;;;6.60;;
59434;SDS011;45241;49.768;8.636;2023-03-01T14:58:18;10.95;;;6.68;;
59434;SDS011;45241;49.768;8.636;2023-03-01T15:00:50;10.05;;;6.63;;
59434;SDS011;45241;49.768;8.636;2023-03-01T15:03:35;13.15;;;6.60;;
59434;SDS011;45241;49.768;8.636;2023-03-01T15:06:03;11.93;;;6.70;;
59434;SDS011;45241;49.768;8.636;2023-03-01T15:08:30;10.70;;;6.53;;
59434;SDS011;45241;49.768;8.636;2023-03-01T15:11:17;10.55;;;6.55;;
59434;SDS011;45241;49.768;8.636;2023-03-01T15:13:49;10.02;;;6.40;;
59434;SDS011;45241;49.768;8.636;2023-03-01T15:16:17;13.65;;;7.60;;
59434;SDS011;45241;49.768;8.636;2023-03-01T15:18:46;13.88;;;7.68;;
59434;SDS011;45241;49.768;8.636;2023-03-01T15:21:18;11.23;;;7.70;;
59434;SDS011;45241;49.768;8.636;2023-03-01T15:23:57;10.80;;;7.20;;
59434;SDS011;45241;49.768;8.636;2023-03-01T15:26:30;15.35;;;8.70;;
59434;SDS011;45241;49.768;8.636;2023-03-01T15:29:00;12.02;;;7.65;;
59434;SDS011;45241;49.768;8.636;2023-03-01T15:31:36;15.25;;;7.65;;
59434;SDS011;45241;49.768;8.636;2023-03-01T15:34:07;12.13;;;7.38;;
59434;SDS011;45241;49.768;8.636;2023-03-01T15:36:42;11.57;;;7.22;;
59434;SDS011;45241;49.768;8.636;2023-03-01T15:39:25;17.60;;;7.90;;
59434;SDS011;45241;49.768;8.636;2023-03-01T15:41:52;15.73;;;7.35;;
59434;SDS011;45241;49.768;8.636;2023-03-01T15:44:27;11.73;;;7.25;;
59434;SDS011;45241;49.768;8.636;2023-03-01T15:46:55;13.63;;;8.52;;
59434;SDS011;45241;49.768;8.636;2023-03-01T15:49:26;14.15;;;8.32;;
59434;SDS011;45241;49.768;8.636;2023-03-01T15:51:53;13.85;;;8.95;;
59434;SDS011;45241;49.768;8.636;2023-03-01T15:54:21;16.58;;;9.02;;
59434;SDS011;45241;49.768;8.636;2023-03-01T15:56:48;15.65;;;8.48;;
59434;SDS011;45241;49.768;8.636;2023-03-01T15:59:14;12.05;;;8.40;;
59434;SDS011;45241;49.768;8.636;2023-03-01T16:01:40;15.70;;;8.02;;
59434;SDS011;45241;49.768;8.636;2023-03-01T16:04:06;13.32;;;7.90;;
59434;SDS011;45241;49.768;8.636;2023-03-01T16:06:31;12.10;;;7.95;;
59434;SDS011;45241;49.768;8.636;2023-03-01T16:08:57;13.55;;;8.20;;
59434;SDS011;45241;49.768;8.636;2023-03-01T16:11:22;13.30;;;8.13;;
59434;SDS011;45241;49.768;8.636;2023-03-01T16:13:47;20.45;;;8.10;;
59434;SDS011;45241;49.768;8.636;2023-03-01T16:16:14;14.95;;;7.90;;
59434;SDS011;45241;49.768;8.636;2023-03-01T16:18:47;15.60;;;8.73;;
59434;SDS011;45241;49.768;8.636;2023-03-01T16:21:17;15.23;;;7.65;;
59434;SDS011;45241;49.768;8.636;2023-03-01T16:23:45;14.18;;;8.52;;
59434;SDS011;45241;49.768;8.636;2023-03-01T16:26:11;13.15;;;8.50;;
59434;SDS011;45241;49.768;8.636;2023-03-01T16:28:37;15.02;;;9.05;;
59434;SDS011;45241;49.768;8.636;2023-03-01T16:31:03;12.88;;;8.65;;
59434;SDS011;45241;49.768;8.636;2023-03-01T16:33:29;14.25;;;8.13;;
59434;SDS011;45241;49.768;8.636;2023-03-01T16:35:54;14.85;;;8.65;;
59434;SDS011;45241;49.768;8.636;2023-03-01T16:38:20;16.10;;;8.98;;